createdAt,value
2023-02-27T00:00:56.306Z,4.47
2023-02-27T00:02:08.071Z,4.50
2023-02-27T00:03:19.524Z,5.05
2023-02-27T00:04:30.922Z,3.40
2023-02-27T00:05:42.572Z,4.53
2023-02-27T00:06:54.041Z,5.25
2023-02-27T00:08:05.516Z,4.10
2023-02-27T00:09:16.998Z,4.57
2023-02-27T00:10:28.414Z,3.67
2023-02-27T00:11:40.305Z,4.15
2023-02-27T00:12:51.787Z,3.67
2023-02-27T00:14:03.232Z,4.75
2023-02-27T00:15:16.253Z,4.53
2023-02-27T00:16:27.831Z,3.90
2023-02-27T00:17:39.472Z,3.20
2023-02-27T00:18:50.932Z,3.33
2023-02-27T00:20:02.606Z,4.82
2023-02-27T00:21:14.222Z,3.53
2023-02-27T00:22:25.717Z,3.22
2023-02-27T00:23:37.553Z,4.05
2023-02-27T00:24:48.989Z,4.65
2023-02-27T00:26:01.085Z,4.40
2023-02-27T00:27:12.499Z,3.92
2023-02-27T00:28:23.921Z,4.20
2023-02-27T00:29:35.366Z,3.90
2023-02-27T00:30:46.943Z,5.40
2023-02-27T00:31:58.554Z,3.47
2023-02-27T00:33:10.185Z,4.65
2023-02-27T00:34:21.665Z,4.47
2023-02-27T00:35:33.168Z,4.32
2023-02-27T00:36:44.688Z,4.88
2023-02-27T00:37:56.135Z,4.45
2023-02-27T00:39:07.593Z,3.33
2023-02-27T00:40:19.146Z,4.78
2023-02-27T00:41:30.635Z,4.00
2023-02-27T00:42:42.063Z,4.85
2023-02-27T00:43:53.489Z,5.50
2023-02-27T00:45:05.460Z,4.28
2023-02-27T00:46:17.073Z,4.00
2023-02-27T00:47:28.583Z,4.13
2023-02-27T00:48:40.046Z,3.97
2023-02-27T00:49:51.502Z,4.90
2023-02-27T00:51:02.923Z,4.68
2023-02-27T00:52:14.484Z,5.30
2023-02-27T00:53:25.895Z,4.75
2023-02-27T00:54:37.372Z,6.03
2023-02-27T00:55:49.016Z,5.13
2023-02-27T00:57:00.520Z,4.85
2023-02-27T00:58:11.992Z,4.57
2023-02-27T00:59:23.559Z,3.72
2023-02-27T01:00:35.101Z,3.75
2023-02-27T01:01:46.777Z,5.23
2023-02-27T01:02:58.220Z,3.80
2023-02-27T01:04:09.618Z,3.80
2023-02-27T01:05:21.324Z,3.93
2023-02-27T01:06:32.778Z,4.15
2023-02-27T01:07:44.298Z,5.80
2023-02-27T01:08:56.167Z,4.77
2023-02-27T01:10:08.778Z,4.20
2023-02-27T01:11:20.244Z,4.60
2023-02-27T01:12:31.697Z,3.42
2023-02-27T01:13:46.275Z,4.38
2023-02-27T01:14:57.698Z,4.88
2023-02-27T01:16:10.614Z,4.07
2023-02-27T01:17:22.108Z,5.20
2023-02-27T01:18:33.542Z,4.47
2023-02-27T01:19:44.941Z,4.65
2023-02-27T01:20:56.539Z,4.78
2023-02-27T01:22:07.993Z,4.68
2023-02-27T01:23:19.551Z,4.90
2023-02-27T01:24:31.076Z,5.03
2023-02-27T01:25:42.481Z,3.63
2023-02-27T01:26:54.001Z,3.75
2023-02-27T01:28:05.427Z,4.05
2023-02-27T01:29:16.887Z,2.90
2023-02-27T01:30:28.399Z,3.83
2023-02-27T01:31:39.883Z,4.50
2023-02-27T01:32:51.349Z,3.50
2023-02-27T01:34:02.807Z,4.30
2023-02-27T01:35:14.448Z,3.83
2023-02-27T01:36:25.937Z,4.88
2023-02-27T01:37:37.447Z,4.97
2023-02-27T01:38:48.840Z,3.50
2023-02-27T01:40:00.324Z,4.13
2023-02-27T01:41:12.160Z,3.83
2023-02-27T01:42:25.078Z,4.38
2023-02-27T01:43:53.514Z,4.15
2023-02-27T01:45:23.449Z,4.07
2023-02-27T01:46:35.450Z,2.55
2023-02-27T01:47:51.620Z,3.63
2023-02-27T01:49:09.720Z,3.70
2023-02-27T01:50:21.571Z,3.95
2023-02-27T01:51:36.141Z,4.35
2023-02-27T01:52:51.599Z,3.75
2023-02-27T01:54:04.086Z,3.88
2023-02-27T01:55:16.061Z,4.05
2023-02-27T01:56:29.062Z,3.85
2023-02-27T01:57:41.705Z,4.40
2023-02-27T01:58:55.376Z,3.05
2023-02-27T02:00:07.369Z,4.15
2023-02-27T02:01:20.046Z,4.25
2023-02-27T02:02:34.866Z,4.50
2023-02-27T02:03:58.301Z,4.40
2023-02-27T02:05:09.848Z,4.10
2023-02-27T02:06:21.459Z,4.25
2023-02-27T02:07:33.832Z,3.83
2023-02-27T02:08:46.578Z,3.63
2023-02-27T02:09:59.336Z,4.93
2023-02-27T02:11:12.430Z,4.22
2023-02-27T02:12:31.505Z,3.35
2023-02-27T02:13:43.049Z,3.95
2023-02-27T02:14:54.577Z,4.40
2023-02-27T02:16:24.763Z,3.72
2023-02-27T02:17:54.747Z,5.35
2023-02-27T02:19:12.206Z,3.72
2023-02-27T02:20:23.670Z,2.85
2023-02-27T02:21:50.212Z,4.83
2023-02-27T02:23:13.768Z,3.78
2023-02-27T02:24:43.913Z,5.03
2023-02-27T02:26:10.538Z,4.47
2023-02-27T02:27:34.346Z,4.72
2023-02-27T02:28:45.760Z,4.55
2023-02-27T02:29:57.141Z,4.07
2023-02-27T02:31:11.429Z,5.25
2023-02-27T02:32:34.747Z,5.22
2023-02-27T02:34:06.076Z,3.65
2023-02-27T02:35:17.448Z,4.55
2023-02-27T02:36:34.938Z,4.30
2023-02-27T02:38:24.669Z,4.03
2023-02-27T02:39:54.717Z,6.00
2023-02-27T02:41:11.165Z,5.50
2023-02-27T02:42:49.087Z,4.30
2023-02-27T02:44:00.548Z,5.05
2023-02-27T02:45:17.774Z,4.60
2023-02-27T02:46:45.518Z,5.97
2023-02-27T02:48:03.667Z,3.97
2023-02-27T02:49:21.052Z,5.25
2023-02-27T02:50:51.255Z,5.47
2023-02-27T02:52:05.565Z,4.47
2023-02-27T02:53:37.156Z,4.78
2023-02-27T02:54:52.930Z,4.43
2023-02-27T02:56:07.171Z,3.58
2023-02-27T02:57:25.469Z,4.20
2023-02-27T02:58:36.866Z,4.63
2023-02-27T02:59:57.880Z,4.65
2023-02-27T03:01:13.378Z,4.47
2023-02-27T03:02:27.638Z,4.75
2023-02-27T03:03:43.230Z,4.65
2023-02-27T03:05:05.145Z,3.83
2023-02-27T03:06:22.305Z,4.72
2023-02-27T03:07:37.758Z,5.38
2023-02-27T03:08:52.094Z,4.68
2023-02-27T03:10:06.965Z,6.68
2023-02-27T03:11:18.518Z,5.00
2023-02-27T03:12:31.533Z,6.07
2023-02-27T03:13:46.081Z,4.55
2023-02-27T03:15:06.566Z,4.95
2023-02-27T03:16:22.785Z,5.93
2023-02-27T03:17:47.360Z,5.18
2023-02-27T03:19:02.097Z,4.07
2023-02-27T03:20:21.591Z,5.50
2023-02-27T03:22:02.197Z,3.97
2023-02-27T03:23:16.662Z,5.10
2023-02-27T03:24:31.365Z,4.28
2023-02-27T03:25:46.227Z,4.32
2023-02-27T03:27:02.868Z,4.18
2023-02-27T03:28:17.094Z,4.43
2023-02-27T03:29:46.881Z,5.50
2023-02-27T03:31:10.039Z,4.47
2023-02-27T03:32:25.010Z,4.65
2023-02-27T03:33:40.212Z,4.80
2023-02-27T03:34:51.818Z,5.13
2023-02-27T03:36:18.026Z,3.95
2023-02-27T03:37:30.088Z,5.63
2023-02-27T03:38:53.804Z,5.22
2023-02-27T03:40:06.523Z,4.03
2023-02-27T03:41:29.281Z,5.80
2023-02-27T03:42:52.947Z,4.30
2023-02-27T03:44:09.716Z,3.42
2023-02-27T03:45:30.130Z,4.15
2023-02-27T03:46:41.999Z,6.03
2023-02-27T03:47:53.584Z,4.28
2023-02-27T03:49:05.555Z,3.25
2023-02-27T03:50:17.139Z,4.13
2023-02-27T03:51:29.139Z,4.75
2023-02-27T03:52:42.927Z,3.72
2023-02-27T03:53:55.454Z,4.32
2023-02-27T03:55:13.713Z,5.45
2023-02-27T03:56:28.355Z,5.45
2023-02-27T03:57:41.254Z,5.05
2023-02-27T03:58:53.488Z,4.13
2023-02-27T04:00:06.385Z,5.78
2023-02-27T04:01:18.181Z,4.47
2023-02-27T04:02:29.726Z,3.67
2023-02-27T04:03:43.824Z,3.50
2023-02-27T04:04:55.264Z,5.20
2023-02-27T04:06:27.053Z,4.22
2023-02-27T04:07:38.470Z,5.32
2023-02-27T04:08:52.933Z,4.00
2023-02-27T04:10:16.333Z,4.95
2023-02-27T04:11:30.628Z,4.30
2023-02-27T04:12:51.008Z,4.45
2023-02-27T04:14:02.434Z,5.57
2023-02-27T04:15:20.157Z,4.20
2023-02-27T04:16:31.618Z,4.47
2023-02-27T04:17:42.989Z,4.22
2023-02-27T04:19:13.313Z,5.20
2023-02-27T04:20:27.874Z,5.53
2023-02-27T04:21:39.441Z,4.93
2023-02-27T04:22:58.212Z,4.07
2023-02-27T04:24:09.623Z,4.43
2023-02-27T04:25:33.094Z,4.43
2023-02-27T04:26:48.409Z,3.25
2023-02-27T04:27:59.935Z,3.58
2023-02-27T04:29:18.655Z,2.53
2023-02-27T04:30:35.384Z,3.03
2023-02-27T04:31:46.855Z,3.35
2023-02-27T04:33:09.427Z,2.60
2023-02-27T04:34:42.354Z,3.67
2023-02-27T04:36:03.156Z,3.55
2023-02-27T04:37:14.595Z,3.15
2023-02-27T04:38:28.436Z,2.45
2023-02-27T04:39:44.560Z,3.13
2023-02-27T04:40:58.349Z,3.30
2023-02-27T04:42:16.146Z,3.22
2023-02-27T04:43:28.478Z,3.50
2023-02-27T04:44:40.450Z,2.80
2023-02-27T04:45:53.221Z,3.33
2023-02-27T04:47:06.139Z,3.35
2023-02-27T04:48:25.124Z,4.10
2023-02-27T04:49:40.532Z,3.60
2023-02-27T04:50:54.543Z,3.40
2023-02-27T04:52:29.278Z,4.60
2023-02-27T04:53:59.715Z,3.55
2023-02-27T04:55:18.081Z,2.25
2023-02-27T04:56:35.969Z,3.38
2023-02-27T04:57:50.177Z,4.07
2023-02-27T04:59:21.824Z,6.63
2023-02-27T05:00:35.115Z,4.22
2023-02-27T05:02:10.416Z,5.13
2023-02-27T05:03:27.236Z,4.20
2023-02-27T05:04:40.390Z,5.10
2023-02-27T05:05:54.891Z,6.47
2023-02-27T05:07:09.666Z,5.20
2023-02-27T05:08:26.289Z,7.32
2023-02-27T05:09:37.684Z,13.45
2023-02-27T05:10:58.785Z,14.75
2023-02-27T05:12:13.028Z,22.17
2023-02-27T05:13:30.407Z,33.75
2023-02-27T05:14:56.942Z,38.63
2023-02-27T05:16:17.709Z,20.63
2023-02-27T05:17:31.893Z,12.52
2023-02-27T05:18:43.634Z,3.80
2023-02-27T05:19:55.646Z,4.43
2023-02-27T05:21:16.220Z,5.32
2023-02-27T05:23:00.093Z,5.45
2023-02-27T05:24:14.217Z,3.42
2023-02-27T05:25:31.428Z,2.58
2023-02-27T05:26:51.856Z,4.28
2023-02-27T05:28:16.765Z,3.25
2023-02-27T05:29:28.199Z,4.32
2023-02-27T05:30:48.236Z,3.85
2023-02-27T05:32:11.705Z,3.25
2023-02-27T05:33:26.004Z,3.95
2023-02-27T05:34:52.516Z,3.28
2023-02-27T05:36:16.423Z,4.38
2023-02-27T05:37:33.133Z,4.25
2023-02-27T05:38:52.856Z,5.18
2023-02-27T05:40:08.456Z,5.18
2023-02-27T05:41:22.687Z,5.47
2023-02-27T05:42:41.015Z,5.72
2023-02-27T05:43:58.808Z,10.60
2023-02-27T05:45:22.338Z,7.50
2023-02-27T05:46:36.260Z,8.43
2023-02-27T05:47:52.342Z,9.55
2023-02-27T05:49:11.895Z,12.27
2023-02-27T05:50:28.039Z,4.60
2023-02-27T05:51:40.059Z,4.05
2023-02-27T05:52:53.270Z,3.05
2023-02-27T05:54:09.920Z,4.32
2023-02-27T05:55:27.240Z,2.65
2023-02-27T05:56:40.021Z,4.00
2023-02-27T05:57:54.093Z,3.50
2023-02-27T05:59:17.530Z,4.10
2023-02-27T06:00:34.999Z,6.80
2023-02-27T06:01:46.686Z,5.85
2023-02-27T06:02:58.230Z,6.30
2023-02-27T06:04:09.760Z,11.63
2023-02-27T06:05:21.239Z,8.32
2023-02-27T06:06:35.122Z,8.75
2023-02-27T06:07:46.614Z,9.25
2023-02-27T06:08:58.157Z,7.28
2023-02-27T06:10:15.075Z,6.30
2023-02-27T06:11:26.535Z,5.65
2023-02-27T06:12:38.029Z,6.72
2023-02-27T06:13:49.548Z,6.10
2023-02-27T06:15:01.043Z,6.07
2023-02-27T06:16:13.407Z,5.72
2023-02-27T06:17:24.924Z,5.70
2023-02-27T06:18:36.337Z,5.43
2023-02-27T06:19:47.869Z,5.63
2023-02-27T06:20:59.378Z,6.28
2023-02-27T06:22:11.117Z,4.45
2023-02-27T06:23:22.536Z,5.82
2023-02-27T06:24:33.993Z,6.75
2023-02-27T06:25:45.900Z,7.28
2023-02-27T06:26:57.337Z,5.65
2023-02-27T06:28:09.342Z,6.50
2023-02-27T06:29:20.854Z,4.60
2023-02-27T06:30:32.352Z,5.45
2023-02-27T06:31:43.889Z,6.23
2023-02-27T06:32:55.334Z,6.72
2023-02-27T06:34:06.767Z,6.35
2023-02-27T06:35:18.434Z,6.10
2023-02-27T06:36:30.342Z,6.53
2023-02-27T06:37:42.350Z,7.88
2023-02-27T06:38:53.747Z,7.32
2023-02-27T06:40:14.503Z,11.10
2023-02-27T06:41:25.926Z,11.18
2023-02-27T06:42:41.434Z,9.00
2023-02-27T06:43:52.914Z,7.70
2023-02-27T06:45:04.909Z,8.82
2023-02-27T06:46:16.437Z,7.30
2023-02-27T06:47:27.905Z,6.70
2023-02-27T06:48:39.380Z,9.90
2023-02-27T06:49:50.830Z,10.27
2023-02-27T06:51:03.545Z,8.52
2023-02-27T06:52:15.029Z,7.00
2023-02-27T06:53:26.575Z,7.60
2023-02-27T06:54:38.141Z,7.97
2023-02-27T06:55:49.636Z,9.87
2023-02-27T06:57:01.263Z,7.53
2023-02-27T06:58:12.684Z,5.50
2023-02-27T06:59:24.165Z,5.60
2023-02-27T07:00:35.679Z,6.88
2023-02-27T07:01:47.195Z,5.53
2023-02-27T07:02:58.692Z,4.57
2023-02-27T07:04:14.593Z,4.43
2023-02-27T07:05:26.348Z,5.73
2023-02-27T07:07:35.029Z,5.50
2023-02-27T07:08:10.352Z,7.17
2023-02-27T07:09:23.206Z,6.87
2023-02-27T07:10:34.620Z,7.50
2023-02-27T07:11:46.116Z,7.43
2023-02-27T07:12:57.595Z,7.83
2023-02-27T07:14:09.070Z,9.00
2023-02-27T07:15:20.686Z,8.27
2023-02-27T07:16:32.237Z,7.43
2023-02-27T07:17:43.989Z,8.73
2023-02-27T07:18:55.437Z,8.23
2023-02-27T07:20:08.267Z,9.60
2023-02-27T07:21:19.766Z,11.00
2023-02-27T07:22:31.196Z,7.53
2023-02-27T07:23:42.670Z,7.87
2023-02-27T07:24:54.131Z,9.17
2023-02-27T07:26:05.610Z,8.55
2023-02-27T07:27:17.042Z,8.83
2023-02-27T07:28:28.518Z,8.55
2023-02-27T07:29:40.023Z,10.13
2023-02-27T07:30:53.257Z,8.60
2023-02-27T07:32:04.812Z,7.27
2023-02-27T07:33:16.354Z,8.00
2023-02-27T07:34:27.782Z,7.07
2023-02-27T07:35:39.292Z,7.40
2023-02-27T07:36:50.757Z,6.75
2023-02-27T07:38:02.183Z,6.27
2023-02-27T07:39:13.661Z,6.57
2023-02-27T07:40:25.174Z,6.40
2023-02-27T07:41:36.664Z,6.18
2023-02-27T07:42:48.947Z,6.70
2023-02-27T07:44:00.440Z,7.87
2023-02-27T07:45:12.119Z,8.60
2023-02-27T07:46:24.720Z,4.50
2023-02-27T07:47:36.310Z,6.13
2023-02-27T07:48:47.788Z,6.60
2023-02-27T07:49:59.551Z,6.80
2023-02-27T07:51:10.984Z,5.40
2023-02-27T07:52:22.566Z,11.40
2023-02-27T07:53:34.331Z,6.87
2023-02-27T07:54:45.764Z,16.53
2023-02-27T07:55:57.176Z,12.67
2023-02-27T07:57:08.830Z,12.30
2023-02-27T07:58:20.293Z,11.07
2023-02-27T07:59:31.848Z,11.17
2023-02-27T08:00:43.487Z,6.00
2023-02-27T08:01:55.067Z,5.37
2023-02-27T08:03:06.540Z,6.43
2023-02-27T08:04:18.062Z,9.30
2023-02-27T08:05:29.559Z,9.23
2023-02-27T08:06:41.155Z,5.47
2023-02-27T08:07:52.579Z,5.43
2023-02-27T08:09:04.121Z,8.00
2023-02-27T08:10:16.786Z,6.93
2023-02-27T08:11:28.538Z,5.17
2023-02-27T08:12:40.289Z,5.83
2023-02-27T08:14:01.081Z,7.07
2023-02-27T08:15:13.404Z,5.83
2023-02-27T08:16:24.968Z,6.00
2023-02-27T08:17:36.618Z,5.50
2023-02-27T08:18:48.103Z,6.53
2023-02-27T08:19:59.659Z,7.53
2023-02-27T08:21:11.101Z,6.70
2023-02-27T08:22:23.579Z,6.67
2023-02-27T08:23:35.085Z,7.40
2023-02-27T08:24:46.513Z,4.70
2023-02-27T08:25:58.447Z,4.83
2023-02-27T08:27:09.933Z,10.30
